createdAt,value
2022-11-30T00:00:02.611Z,15.72
2022-11-30T00:00:12.615Z,15.73
2022-11-30T00:00:22.633Z,15.72
2022-11-30T00:00:32.616Z,15.72
2022-11-30T00:00:42.614Z,15.73
2022-11-30T00:00:52.618Z,15.74
2022-11-30T00:01:02.617Z,15.73
2022-11-30T00:01:12.621Z,15.72
2022-11-30T00:01:22.631Z,15.71
2022-11-30T00:01:32.622Z,15.70
2022-11-30T00:01:42.621Z,15.71
2022-11-30T00:01:52.644Z,15.74
2022-11-30T00:02:02.687Z,15.73
2022-11-30T00:02:12.705Z,15.71
2022-11-30T00:02:22.820Z,15.71
2022-11-30T00:02:32.747Z,15.71
2022-11-30T00:02:42.737Z,15.72
2022-11-30T00:02:52.749Z,15.72
2022-11-30T00:03:02.774Z,15.72
2022-11-30T00:03:12.689Z,15.71
2022-11-30T00:03:22.759Z,15.71
2022-11-30T00:03:32.656Z,15.71
2022-11-30T00:03:42.627Z,15.71
2022-11-30T00:03:52.641Z,15.71
2022-11-30T00:04:02.631Z,15.71
2022-11-30T00:04:12.675Z,15.72
2022-11-30T00:04:22.635Z,15.72
2022-11-30T00:04:32.631Z,15.71
2022-11-30T00:04:42.634Z,15.72
2022-11-30T00:04:52.638Z,15.72
2022-11-30T00:05:02.635Z,15.71
2022-11-30T00:05:12.636Z,15.72
2022-11-30T00:05:22.636Z,15.71
2022-11-30T00:05:32.638Z,15.70
2022-11-30T00:05:42.640Z,15.70
2022-11-30T00:05:52.636Z,15.70
2022-11-30T00:06:02.639Z,15.71
2022-11-30T00:06:12.631Z,15.72
2022-11-30T00:06:22.644Z,15.70
2022-11-30T00:06:32.644Z,15.69
2022-11-30T00:06:42.648Z,15.71
2022-11-30T00:06:52.631Z,15.71
2022-11-30T00:07:02.642Z,15.68
2022-11-30T00:07:12.648Z,15.69
2022-11-30T00:07:22.702Z,15.69
2022-11-30T00:07:32.693Z,15.71
2022-11-30T00:07:42.676Z,15.68
2022-11-30T00:07:52.686Z,15.69
2022-11-30T00:08:02.652Z,15.68
2022-11-30T00:08:12.639Z,15.70
2022-11-30T00:08:22.651Z,15.70
2022-11-30T00:08:32.635Z,15.68
2022-11-30T00:08:42.654Z,15.67
2022-11-30T00:08:52.652Z,15.68
2022-11-30T00:09:02.667Z,15.69
2022-11-30T00:09:12.657Z,15.66
2022-11-30T00:09:22.665Z,15.67
2022-11-30T00:09:32.665Z,15.68
2022-11-30T00:09:42.638Z,15.68
2022-11-30T00:09:52.658Z,15.69
2022-11-30T00:10:02.665Z,15.68
2022-11-30T00:10:12.661Z,15.68
2022-11-30T00:10:22.658Z,15.69
2022-11-30T00:10:32.664Z,15.69
2022-11-30T00:10:42.659Z,15.69
2022-11-30T00:10:52.659Z,15.69
2022-11-30T00:11:02.661Z,15.69
2022-11-30T00:11:12.650Z,15.70
2022-11-30T00:11:22.664Z,15.70
2022-11-30T00:11:32.665Z,15.69
2022-11-30T00:11:42.667Z,15.68
2022-11-30T00:11:52.666Z,15.70
2022-11-30T00:12:02.668Z,15.69
2022-11-30T00:12:12.665Z,15.70
2022-11-30T00:12:22.666Z,15.70
2022-11-30T00:12:32.652Z,15.70
2022-11-30T00:12:42.672Z,15.70
2022-11-30T00:12:52.670Z,15.70
2022-11-30T00:13:02.670Z,15.69
2022-11-30T00:13:12.673Z,15.71
2022-11-30T00:13:22.674Z,15.70
2022-11-30T00:13:32.676Z,15.70
2022-11-30T00:13:42.677Z,15.70
2022-11-30T00:13:52.661Z,15.69
2022-11-30T00:14:02.679Z,15.70
2022-11-30T00:14:12.661Z,15.69
2022-11-30T00:14:22.695Z,15.70
2022-11-30T00:14:32.679Z,15.70
2022-11-30T00:14:42.683Z,15.70
2022-11-30T00:14:52.679Z,15.68
2022-11-30T00:15:02.680Z,15.70
2022-11-30T00:15:12.683Z,15.70
2022-11-30T00:15:22.685Z,15.68
2022-11-30T00:15:32.685Z,15.70
2022-11-30T00:15:42.687Z,15.68
2022-11-30T00:15:52.689Z,15.69
2022-11-30T00:16:02.685Z,15.68
2022-11-30T00:16:12.689Z,15.68
2022-11-30T00:16:22.750Z,15.68
2022-11-30T00:16:32.765Z,15.69
2022-11-30T00:16:42.718Z,15.68
2022-11-30T00:16:52.714Z,15.67
2022-11-30T00:17:02.743Z,15.68
2022-11-30T00:17:12.693Z,15.69
2022-11-30T00:17:22.694Z,15.68
2022-11-30T00:17:32.678Z,15.70
2022-11-30T00:17:42.697Z,15.69
2022-11-30T00:17:52.698Z,15.70
2022-11-30T00:18:02.697Z,15.69
2022-11-30T00:18:12.704Z,15.70
2022-11-30T00:18:22.702Z,15.70
2022-11-30T00:18:32.700Z,15.68
2022-11-30T00:18:42.702Z,15.69
2022-11-30T00:18:52.702Z,15.68
2022-11-30T00:19:02.704Z,15.68
2022-11-30T00:19:12.702Z,15.69
2022-11-30T00:19:22.704Z,15.68
2022-11-30T00:19:32.703Z,15.69
2022-11-30T00:19:42.705Z,15.67
2022-11-30T00:19:52.709Z,15.67
2022-11-30T00:20:02.708Z,15.68
2022-11-30T00:20:12.690Z,15.68
2022-11-30T00:20:22.714Z,15.67
2022-11-30T00:20:32.713Z,15.68
2022-11-30T00:20:42.717Z,15.67
2022-11-30T00:20:52.713Z,15.68
2022-11-30T00:21:02.713Z,15.66
2022-11-30T00:21:12.712Z,15.67
2022-11-30T00:21:22.718Z,15.67
2022-11-30T00:21:32.716Z,15.67
2022-11-30T00:21:42.720Z,15.67
2022-11-30T00:21:52.715Z,15.69
2022-11-30T00:22:02.722Z,15.68
2022-11-30T00:22:12.703Z,15.69
2022-11-30T00:22:22.717Z,15.70
2022-11-30T00:22:32.724Z,15.68
2022-11-30T00:22:42.722Z,15.70
2022-11-30T00:22:52.720Z,15.68
2022-11-30T00:23:02.723Z,15.69
2022-11-30T00:23:12.719Z,15.69
2022-11-30T00:23:22.721Z,15.68
2022-11-30T00:23:32.721Z,15.69
2022-11-30T00:23:42.722Z,15.69
2022-11-30T00:23:52.724Z,15.69
2022-11-30T00:24:02.727Z,15.69
2022-11-30T00:24:12.728Z,15.68
2022-11-30T00:24:22.725Z,15.69
2022-11-30T00:24:32.724Z,15.67
2022-11-30T00:24:42.731Z,15.67
2022-11-30T00:24:52.730Z,15.67
2022-11-30T00:25:02.731Z,15.68
2022-11-30T00:25:12.734Z,15.68
2022-11-30T00:25:22.720Z,15.68
2022-11-30T00:25:32.732Z,15.67
2022-11-30T00:25:42.733Z,15.68
2022-11-30T00:25:52.736Z,15.67
2022-11-30T00:26:02.740Z,15.68
2022-11-30T00:26:12.761Z,15.68
2022-11-30T00:26:22.730Z,15.68
2022-11-30T00:26:32.742Z,15.66
2022-11-30T00:26:42.744Z,15.66
2022-11-30T00:26:52.736Z,15.67
2022-11-30T00:27:02.738Z,15.67
2022-11-30T00:27:12.737Z,15.66
2022-11-30T00:27:22.721Z,15.68
2022-11-30T00:27:32.740Z,15.67
2022-11-30T00:27:42.739Z,15.68
2022-11-30T00:27:52.723Z,15.67
2022-11-30T00:28:02.744Z,15.66
2022-11-30T00:28:12.742Z,15.66
2022-11-30T00:28:22.745Z,15.67
2022-11-30T00:28:32.746Z,15.67
2022-11-30T00:28:42.727Z,15.67
2022-11-30T00:28:52.754Z,15.67
2022-11-30T00:29:02.755Z,15.67
2022-11-30T00:29:12.747Z,15.67
2022-11-30T00:29:22.752Z,15.67
2022-11-30T00:29:32.731Z,15.67
2022-11-30T00:29:42.754Z,15.67
2022-11-30T00:29:52.757Z,15.68
2022-11-30T00:30:02.767Z,15.66
2022-11-30T00:30:12.737Z,15.67
2022-11-30T00:30:22.759Z,15.68
2022-11-30T00:30:32.830Z,15.66
2022-11-30T00:30:42.801Z,15.68
2022-11-30T00:30:52.776Z,15.66
2022-11-30T00:31:02.875Z,15.67
2022-11-30T00:31:12.837Z,15.67
2022-11-30T00:31:22.881Z,15.68
2022-11-30T00:31:32.762Z,15.66
2022-11-30T00:31:42.762Z,15.66
2022-11-30T00:31:52.772Z,15.67
2022-11-30T00:32:02.762Z,15.68
2022-11-30T00:32:12.767Z,15.66
2022-11-30T00:32:22.765Z,15.67
2022-11-30T00:32:32.767Z,15.67
2022-11-30T00:32:42.767Z,15.68
2022-11-30T00:32:52.768Z,15.66
2022-11-30T00:33:02.767Z,15.68
2022-11-30T00:33:12.769Z,15.67
2022-11-30T00:33:22.768Z,15.66
2022-11-30T00:33:32.774Z,15.65
2022-11-30T00:33:42.771Z,15.67
2022-11-30T00:33:52.770Z,15.66
2022-11-30T00:34:02.776Z,15.66
2022-11-30T00:34:12.773Z,15.67
2022-11-30T00:34:22.774Z,15.67
2022-11-30T00:34:32.779Z,15.65
2022-11-30T00:34:42.773Z,15.67
2022-11-30T00:34:52.778Z,15.66
2022-11-30T00:35:02.784Z,15.65
2022-11-30T00:35:12.779Z,15.65
2022-11-30T00:35:22.780Z,15.67
2022-11-30T00:35:32.781Z,15.66
2022-11-30T00:35:42.784Z,15.66
2022-11-30T00:35:52.764Z,15.65
2022-11-30T00:36:02.781Z,15.65
2022-11-30T00:36:12.788Z,15.64
2022-11-30T00:36:22.791Z,15.66
2022-11-30T00:36:32.784Z,15.67
2022-11-30T00:36:42.788Z,15.66
2022-11-30T00:36:52.786Z,15.67
2022-11-30T00:37:02.793Z,15.67
2022-11-30T00:37:12.787Z,15.65
2022-11-30T00:37:22.788Z,15.67
2022-11-30T00:37:32.792Z,15.66
2022-11-30T00:37:42.789Z,15.66
2022-11-30T00:37:52.779Z,15.66
2022-11-30T00:38:02.782Z,15.67
2022-11-30T00:38:12.792Z,15.65
2022-11-30T00:38:22.799Z,15.66
2022-11-30T00:38:32.800Z,15.66
2022-11-30T00:38:42.784Z,15.67
2022-11-30T00:38:52.798Z,15.67
2022-11-30T00:39:02.793Z,15.67
2022-11-30T00:39:12.803Z,15.65
2022-11-30T00:39:22.809Z,15.66
2022-11-30T00:39:35.583Z,15.67
2022-11-30T00:39:42.808Z,15.66
2022-11-30T00:39:52.810Z,15.65
2022-11-30T00:40:02.797Z,15.65
2022-11-30T00:40:12.785Z,15.66
2022-11-30T00:40:22.806Z,15.64
2022-11-30T00:40:32.811Z,15.65
2022-11-30T00:40:42.810Z,15.63
2022-11-30T00:40:52.806Z,15.65
2022-11-30T00:41:02.807Z,15.66
2022-11-30T00:41:12.822Z,15.65
2022-11-30T00:41:22.808Z,15.64
2022-11-30T00:41:32.810Z,15.65
2022-11-30T00:41:42.881Z,15.64
2022-11-30T00:41:52.809Z,15.65
2022-11-30T00:42:02.833Z,15.65
2022-11-30T00:42:12.811Z,15.66
2022-11-30T00:42:22.816Z,15.66
2022-11-30T00:42:32.813Z,15.65
2022-11-30T00:42:42.814Z,15.66
2022-11-30T00:42:52.812Z,15.67
2022-11-30T00:43:02.811Z,15.67
2022-11-30T00:43:12.819Z,15.66
2022-11-30T00:43:22.814Z,15.66
2022-11-30T00:43:32.816Z,15.65
2022-11-30T00:43:42.816Z,15.67
2022-11-30T00:43:52.818Z,15.65
2022-11-30T00:44:02.820Z,15.65
2022-11-30T00:44:12.820Z,15.67
2022-11-30T00:44:22.821Z,15.65
2022-11-30T00:44:32.823Z,15.65
2022-11-30T00:44:42.843Z,15.63
2022-11-30T00:44:52.822Z,15.64
2022-11-30T00:45:02.825Z,15.64
2022-11-30T00:45:12.821Z,15.64
2022-11-30T00:45:22.828Z,15.66
2022-11-30T00:45:32.830Z,15.65
2022-11-30T00:45:42.916Z,15.65
2022-11-30T00:45:52.866Z,15.64
2022-11-30T00:46:02.892Z,15.65
2022-11-30T00:46:12.871Z,15.64
2022-11-30T00:46:22.862Z,15.64
2022-11-30T00:46:32.876Z,15.65
2022-11-30T00:46:42.831Z,15.66
2022-11-30T00:46:52.833Z,15.65
2022-11-30T00:47:02.830Z,15.64
2022-11-30T00:47:12.833Z,15.66
2022-11-30T00:47:22.834Z,15.65
2022-11-30T00:47:32.836Z,15.63
2022-11-30T00:47:42.836Z,15.62
2022-11-30T00:47:52.836Z,15.64
2022-11-30T00:48:02.836Z,15.66
2022-11-30T00:48:12.837Z,15.64
2022-11-30T00:48:22.836Z,15.64
2022-11-30T00:48:32.839Z,15.65
2022-11-30T00:48:42.840Z,15.65
2022-11-30T00:48:52.839Z,15.65
2022-11-30T00:49:02.845Z,15.64
2022-11-30T00:49:12.845Z,15.64
2022-11-30T00:49:22.843Z,15.64
2022-11-30T00:49:32.851Z,15.64
2022-11-30T00:49:42.845Z,15.64
2022-11-30T00:49:52.847Z,15.63
2022-11-30T00:50:02.847Z,15.65
2022-11-30T00:50:12.850Z,15.65
2022-11-30T00:50:22.846Z,15.66
2022-11-30T00:50:32.849Z,15.65
2022-11-30T00:50:42.852Z,15.65
2022-11-30T00:50:52.849Z,15.67
2022-11-30T00:51:02.851Z,15.65
2022-11-30T00:51:12.870Z,15.65
2022-11-30T00:51:22.853Z,15.66
2022-11-30T00:51:32.862Z,15.65
2022-11-30T00:51:42.859Z,15.63
2022-11-30T00:51:52.857Z,15.65
2022-11-30T00:52:02.859Z,15.64
2022-11-30T00:52:12.864Z,15.64
2022-11-30T00:52:22.861Z,15.64
2022-11-30T00:52:32.869Z,15.64
2022-11-30T00:52:42.866Z,15.65
2022-11-30T00:52:52.866Z,15.65
2022-11-30T00:53:02.891Z,15.65
2022-11-30T00:53:12.883Z,15.64
2022-11-30T00:53:22.880Z,15.64
2022-11-30T00:53:32.876Z,15.64
2022-11-30T00:53:42.885Z,15.66
2022-11-30T00:53:52.877Z,15.65
2022-11-30T00:54:02.871Z,15.65
2022-11-30T00:54:12.873Z,15.63
2022-11-30T00:54:22.872Z,15.64
2022-11-30T00:54:32.875Z,15.64
2022-11-30T00:54:42.882Z,15.65
2022-11-30T00:54:52.875Z,15.65
2022-11-30T00:55:04.343Z,15.65
2022-11-30T00:55:12.877Z,15.63
2022-11-30T00:55:22.881Z,15.63
2022-11-30T00:55:32.879Z,15.64
2022-11-30T00:55:42.885Z,15.64
2022-11-30T00:55:52.881Z,15.66
2022-11-30T00:56:02.883Z,15.64
2022-11-30T00:56:12.885Z,15.64
2022-11-30T00:56:24.805Z,15.64
2022-11-30T00:56:32.888Z,15.62
2022-11-30T00:56:42.884Z,15.63
2022-11-30T00:56:52.887Z,15.63
2022-11-30T00:57:02.889Z,15.63
2022-11-30T00:57:12.888Z,15.62
2022-11-30T00:57:22.888Z,15.63
2022-11-30T00:57:32.869Z,15.63
2022-11-30T00:57:42.892Z,15.62
2022-11-30T00:57:52.894Z,15.65
2022-11-30T00:58:02.892Z,15.64
2022-11-30T00:58:12.894Z,15.63
2022-11-30T00:58:22.895Z,15.62
2022-11-30T00:58:32.896Z,15.63
2022-11-30T00:58:43.019Z,15.64
2022-11-30T00:58:52.898Z,15.61
2022-11-30T00:59:02.884Z,15.62
2022-11-30T00:59:12.903Z,15.62
2022-11-30T00:59:22.884Z,15.62
2022-11-30T00:59:32.900Z,15.62
2022-11-30T00:59:42.908Z,15.62
2022-11-30T00:59:52.902Z,15.64
2022-11-30T01:00:02.906Z,15.63
2022-11-30T01:00:12.901Z,15.62
2022-11-30T01:00:22.904Z,15.62
2022-11-30T01:00:32.902Z,15.61
2022-11-30T01:00:42.907Z,15.62
2022-11-30T01:00:52.888Z,15.62
2022-11-30T01:01:02.931Z,15.62
2022-11-30T01:01:12.928Z,15.63
2022-11-30T01:01:23.011Z,15.62
2022-11-30T01:01:33.000Z,15.60
2022-11-30T01:01:42.926Z,15.62
2022-11-30T01:01:52.920Z,15.62
2022-11-30T01:02:02.961Z,15.62
2022-11-30T01:02:12.959Z,15.63
2022-11-30T01:02:22.977Z,15.64
2022-11-30T01:02:32.940Z,15.62
2022-11-30T01:02:42.956Z,15.62
2022-11-30T01:02:52.954Z,15.62
2022-11-30T01:03:02.920Z,15.64
2022-11-30T01:03:12.920Z,15.63
2022-11-30T01:03:22.917Z,15.62
2022-11-30T01:03:32.919Z,15.62
2022-11-30T01:03:43.605Z,15.61
2022-11-30T01:03:52.923Z,15.63
2022-11-30T01:04:02.926Z,15.62
2022-11-30T01:04:12.921Z,15.61
2022-11-30T01:04:22.919Z,15.62
2022-11-30T01:04:32.927Z,15.62
2022-11-30T01:04:42.909Z,15.61
2022-11-30T01:04:52.925Z,15.61
2022-11-30T01:05:02.939Z,15.61
2022-11-30T01:05:12.928Z,15.62
2022-11-30T01:05:22.931Z,15.61
2022-11-30T01:05:32.934Z,15.62
2022-11-30T01:05:42.931Z,15.63
2022-11-30T01:05:52.930Z,15.61
2022-11-30T01:06:02.987Z,15.61
2022-11-30T01:06:12.918Z,15.61
2022-11-30T01:06:22.935Z,15.61
2022-11-30T01:06:32.921Z,15.61
2022-11-30T01:06:42.936Z,15.62
2022-11-30T01:06:52.941Z,15.61
2022-11-30T01:07:02.939Z,15.61
2022-11-30T01:07:12.943Z,15.62
2022-11-30T01:07:22.979Z,15.63
2022-11-30T01:07:32.973Z,15.61
2022-11-30T01:07:42.998Z,15.62
2022-11-30T01:07:52.968Z,15.61
2022-11-30T01:08:02.947Z,15.61
2022-11-30T01:08:12.943Z,15.61
2022-11-30T01:08:22.944Z,15.61
2022-11-30T01:08:32.947Z,15.61
2022-11-30T01:08:43.605Z,15.59
2022-11-30T01:08:52.947Z,15.58
2022-11-30T01:09:02.947Z,15.59
2022-11-30T01:09:12.948Z,15.61
2022-11-30T01:09:22.953Z,15.60
2022-11-30T01:09:32.957Z,15.61
2022-11-30T01:09:42.952Z,15.60
2022-11-30T01:09:52.955Z,15.61
2022-11-30T01:10:02.959Z,15.61
2022-11-30T01:10:12.954Z,15.58
2022-11-30T01:10:22.956Z,15.60
2022-11-30T01:10:32.956Z,15.60
2022-11-30T01:10:42.957Z,15.60
2022-11-30T01:10:52.955Z,15.59
2022-11-30T01:11:02.964Z,15.60
2022-11-30T01:11:12.957Z,15.61
2022-11-30T01:11:22.972Z,15.60
2022-11-30T01:11:32.969Z,15.59
2022-11-30T01:11:42.960Z,15.60
2022-11-30T01:11:52.962Z,15.62
2022-11-30T01:12:02.946Z,15.60
2022-11-30T01:12:12.970Z,15.60
2022-11-30T01:12:22.969Z,15.59
2022-11-30T01:12:32.951Z,15.60
2022-11-30T01:12:42.969Z,15.60
2022-11-30T01:12:52.973Z,15.60
2022-11-30T01:13:02.971Z,15.60
2022-11-30T01:13:12.972Z,15.61
2022-11-30T01:13:22.977Z,15.60
2022-11-30T01:13:32.972Z,15.59
2022-11-30T01:13:43.587Z,15.59
2022-11-30T01:13:52.981Z,15.59
2022-11-30T01:14:02.957Z,15.59
2022-11-30T01:14:12.980Z,15.60
2022-11-30T01:14:22.987Z,15.60
2022-11-30T01:14:32.985Z,15.59
2022-11-30T01:14:42.979Z,15.61
2022-11-30T01:14:52.990Z,15.61
2022-11-30T01:15:02.997Z,15.60
2022-11-30T01:15:12.984Z,15.59
2022-11-30T01:15:22.962Z,15.60
2022-11-30T01:15:33.058Z,15.60
2022-11-30T01:15:43.021Z,15.61
2022-11-30T01:15:53.012Z,15.59
2022-11-30T01:16:03.012Z,15.60
2022-11-30T01:16:13.122Z,15.60
2022-11-30T01:16:23.036Z,15.60
2022-11-30T01:16:32.994Z,15.58
2022-11-30T01:16:42.990Z,15.60
2022-11-30T01:16:56.193Z,15.60
2022-11-30T01:17:03.007Z,15.60
2022-11-30T01:17:12.994Z,15.60
2022-11-30T01:17:22.998Z,15.59
2022-11-30T01:17:32.996Z,15.59
2022-11-30T01:17:42.995Z,15.58
2022-11-30T01:17:52.997Z,15.58
2022-11-30T01:18:03.000Z,15.59
2022-11-30T01:18:12.996Z,15.59
2022-11-30T01:18:22.997Z,15.61
2022-11-30T01:18:32.997Z,15.60
2022-11-30T01:18:43.606Z,15.59
2022-11-30T01:18:53.001Z,15.58
2022-11-30T01:19:03.017Z,15.59
2022-11-30T01:19:13.015Z,15.60
2022-11-30T01:19:23.012Z,15.61
2022-11-30T01:19:33.005Z,15.61
2022-11-30T01:19:43.004Z,15.60
2022-11-30T01:19:53.010Z,15.60
2022-11-30T01:20:03.010Z,15.60
2022-11-30T01:20:13.003Z,15.61
2022-11-30T01:20:23.006Z,15.60
2022-11-30T01:20:33.009Z,15.61
2022-11-30T01:20:43.014Z,15.61
2022-11-30T01:20:53.011Z,15.61
2022-11-30T01:21:03.015Z,15.60
2022-11-30T01:21:13.013Z,15.58
2022-11-30T01:21:23.014Z,15.60
2022-11-30T01:21:33.016Z,15.60
2022-11-30T01:21:43.018Z,15.60
2022-11-30T01:21:53.017Z,15.60
2022-11-30T01:22:03.019Z,15.60
2022-11-30T01:22:13.016Z,15.60
2022-11-30T01:22:23.022Z,15.59
2022-11-30T01:22:33.024Z,15.59
2022-11-30T01:22:43.024Z,15.60
2022-11-30T01:22:53.021Z,15.58
2022-11-30T01:23:03.020Z,15.60
2022-11-30T01:23:13.020Z,15.59
2022-11-30T01:23:23.020Z,15.58
2022-11-30T01:23:33.022Z,15.59
2022-11-30T01:23:43.035Z,15.59
2022-11-30T01:23:53.008Z,15.59
2022-11-30T01:24:03.022Z,15.60
2022-11-30T01:24:13.023Z,15.58
2022-11-30T01:24:23.022Z,15.59
2022-11-30T01:24:33.032Z,15.57
2022-11-30T01:24:43.028Z,15.58
2022-11-30T01:24:53.029Z,15.59
2022-11-30T01:25:03.039Z,15.59
2022-11-30T01:25:13.024Z,15.60
2022-11-30T01:25:23.032Z,15.61
2022-11-30T01:25:33.035Z,15.59
2022-11-30T01:25:43.046Z,15.59
2022-11-30T01:25:53.040Z,15.59
2022-11-30T01:26:03.039Z,15.58
2022-11-30T01:26:13.040Z,15.60
2022-11-30T01:26:23.037Z,15.59
2022-11-30T01:26:33.050Z,15.61
2022-11-30T01:26:43.043Z,15.60
2022-11-30T01:26:53.043Z,15.59
2022-11-30T01:27:03.039Z,15.60
2022-11-30T01:27:13.043Z,15.59
2022-11-30T01:27:23.046Z,15.59
2022-11-30T01:27:33.040Z,15.58
2022-11-30T01:27:43.046Z,15.59
2022-11-30T01:27:53.042Z,15.58
2022-11-30T01:28:03.043Z,15.60
2022-11-30T01:28:13.043Z,15.59
2022-11-30T01:28:23.048Z,15.60
2022-11-30T01:28:33.073Z,15.58
2022-11-30T01:28:43.047Z,15.59
2022-11-30T01:28:53.049Z,15.61
2022-11-30T01:29:03.053Z,15.59
2022-11-30T01:29:13.054Z,15.60
2022-11-30T01:29:23.055Z,15.60
2022-11-30T01:29:33.063Z,15.59
2022-11-30T01:29:43.048Z,15.59
2022-11-30T01:29:53.063Z,15.59
2022-11-30T01:30:03.058Z,15.60
2022-11-30T01:30:13.035Z,15.59
2022-11-30T01:30:23.048Z,15.59
2022-11-30T01:30:33.081Z,15.59
2022-11-30T01:30:43.077Z,15.58
2022-11-30T01:30:53.067Z,15.59
2022-11-30T01:31:03.116Z,15.59
2022-11-30T01:31:13.106Z,15.60
2022-11-30T01:31:23.109Z,15.60
2022-11-30T01:31:33.066Z,15.59
2022-11-30T01:31:43.062Z,15.59
2022-11-30T01:31:53.067Z,15.60
2022-11-30T01:32:03.062Z,15.58
2022-11-30T01:32:13.064Z,15.59
2022-11-30T01:32:23.070Z,15.59
2022-11-30T01:32:33.068Z,15.60
2022-11-30T01:32:43.065Z,15.58
2022-11-30T01:32:53.067Z,15.59
2022-11-30T01:33:03.072Z,15.59
2022-11-30T01:33:13.078Z,15.58
2022-11-30T01:33:23.070Z,15.58
2022-11-30T01:33:33.070Z,15.58
2022-11-30T01:33:43.076Z,15.58
2022-11-30T01:33:53.071Z,15.60
2022-11-30T01:34:03.071Z,15.60
2022-11-30T01:34:13.075Z,15.60
2022-11-30T01:34:23.073Z,15.59
2022-11-30T01:34:33.075Z,15.60
2022-11-30T01:34:43.057Z,15.59
2022-11-30T01:34:53.079Z,15.60
2022-11-30T01:35:03.061Z,15.59
2022-11-30T01:35:13.078Z,15.60
2022-11-30T01:35:23.076Z,15.59
2022-11-30T01:35:33.083Z,15.60
2022-11-30T01:35:43.104Z,15.59
2022-11-30T01:35:53.084Z,15.60
2022-11-30T01:36:03.080Z,15.59
2022-11-30T01:36:13.089Z,15.59
2022-11-30T01:36:23.093Z,15.60
2022-11-30T01:36:33.082Z,15.59
2022-11-30T01:36:43.085Z,15.59
2022-11-30T01:36:53.084Z,15.59
2022-11-30T01:37:03.084Z,15.60
2022-11-30T01:37:13.088Z,15.59
2022-11-30T01:37:23.093Z,15.58
2022-11-30T01:37:33.086Z,15.58
2022-11-30T01:37:43.088Z,15.59
2022-11-30T01:37:53.087Z,15.61
2022-11-30T01:38:03.088Z,15.58
2022-11-30T01:38:13.089Z,15.59
2022-11-30T01:38:23.088Z,15.56
2022-11-30T01:38:33.092Z,15.58
2022-11-30T01:38:43.599Z,15.58
2022-11-30T01:38:53.093Z,15.60
2022-11-30T01:39:03.099Z,15.58
2022-11-30T01:39:13.093Z,15.58
2022-11-30T01:39:23.096Z,15.59
2022-11-30T01:39:33.100Z,15.60
2022-11-30T01:39:43.095Z,15.60
2022-11-30T01:39:53.109Z,15.60
2022-11-30T01:40:03.104Z,15.58
2022-11-30T01:40:13.104Z,15.59
2022-11-30T01:40:23.107Z,15.59
2022-11-30T01:40:33.105Z,15.59
2022-11-30T01:40:43.086Z,15.58
2022-11-30T01:40:53.105Z,15.58
2022-11-30T01:41:03.107Z,15.57
2022-11-30T01:41:13.109Z,15.58
2022-11-30T01:41:23.110Z,15.60
2022-11-30T01:41:33.108Z,15.60
2022-11-30T01:41:43.107Z,15.58
2022-11-30T01:41:53.108Z,15.58
2022-11-30T01:42:03.089Z,15.58
2022-11-30T01:42:13.110Z,15.59
2022-11-30T01:42:23.110Z,15.58
2022-11-30T01:42:33.131Z,15.59
2022-11-30T01:42:43.113Z,15.59
2022-11-30T01:42:53.114Z,15.59
2022-11-30T01:43:03.115Z,15.58
2022-11-30T01:43:13.116Z,15.58
2022-11-30T01:43:23.117Z,15.59
2022-11-30T01:43:33.119Z,15.58
2022-11-30T01:43:44.116Z,15.57
2022-11-30T01:43:53.118Z,15.58
2022-11-30T01:44:03.121Z,15.58
2022-11-30T01:44:18.152Z,15.57
2022-11-30T01:44:24.123Z,15.55
2022-11-30T01:44:33.122Z,15.55
2022-11-30T01:44:43.127Z,15.54
2022-11-30T01:44:53.128Z,15.55
2022-11-30T01:45:03.123Z,15.55
2022-11-30T01:45:13.127Z,15.54
2022-11-30T01:45:23.123Z,15.56
2022-11-30T01:45:33.123Z,15.55
2022-11-30T01:45:43.126Z,15.54
2022-11-30T01:45:53.149Z,15.56
2022-11-30T01:46:03.221Z,15.55
2022-11-30T01:46:13.154Z,15.55
2022-11-30T01:46:23.226Z,15.57
2022-11-30T01:46:33.196Z,15.56
2022-11-30T01:46:43.130Z,15.54
2022-11-30T01:46:53.135Z,15.55
2022-11-30T01:47:03.139Z,15.54
2022-11-30T01:47:13.137Z,15.56
2022-11-30T01:47:23.137Z,15.57
2022-11-30T01:47:33.147Z,15.56
2022-11-30T01:47:43.145Z,15.54
2022-11-30T01:47:53.137Z,15.55
2022-11-30T01:48:03.143Z,15.55
2022-11-30T01:48:13.141Z,15.56
2022-11-30T01:48:23.142Z,15.56
2022-11-30T01:48:33.142Z,15.55
2022-11-30T01:48:44.120Z,15.55
2022-11-30T01:48:53.142Z,15.56
2022-11-30T01:49:03.143Z,15.55
2022-11-30T01:49:13.146Z,15.57
2022-11-30T01:49:23.147Z,15.55
2022-11-30T01:49:33.148Z,15.57
2022-11-30T01:49:43.150Z,15.56
2022-11-30T01:49:53.152Z,15.55
2022-11-30T01:50:03.151Z,15.55
2022-11-30T01:50:13.159Z,15.55
2022-11-30T01:50:23.159Z,15.56
2022-11-30T01:50:33.153Z,15.55
2022-11-30T01:50:43.154Z,15.56
2022-11-30T01:50:53.156Z,15.56
2022-11-30T01:51:03.155Z,15.56
2022-11-30T01:51:13.158Z,15.55
2022-11-30T01:51:23.156Z,15.55
2022-11-30T01:51:33.159Z,15.54
2022-11-30T01:51:43.159Z,15.55
2022-11-30T01:51:53.159Z,15.55
2022-11-30T01:52:03.162Z,15.55
2022-11-30T01:52:13.166Z,15.54
2022-11-30T01:52:23.168Z,15.55
2022-11-30T01:52:33.162Z,15.55
2022-11-30T01:52:43.168Z,15.57
2022-11-30T01:52:53.166Z,15.54
2022-11-30T01:53:03.167Z,15.57
2022-11-30T01:53:13.169Z,15.55
2022-11-30T01:53:23.165Z,15.54
2022-11-30T01:53:33.185Z,15.54
2022-11-30T01:53:44.127Z,15.55
2022-11-30T01:53:53.174Z,15.54
2022-11-30T01:54:03.170Z,15.54
2022-11-30T01:54:13.177Z,15.53
2022-11-30T01:54:23.175Z,15.55
2022-11-30T01:54:33.174Z,15.54
2022-11-30T01:54:43.173Z,15.54
2022-11-30T01:54:53.174Z,15.56
2022-11-30T01:55:03.180Z,15.55
2022-11-30T01:55:13.195Z,15.54
2022-11-30T01:55:23.190Z,15.55
2022-11-30T01:55:33.188Z,15.56
2022-11-30T01:55:43.184Z,15.54
2022-11-30T01:55:53.199Z,15.56
2022-11-30T01:56:03.182Z,15.55
2022-11-30T01:56:13.194Z,15.55
2022-11-30T01:56:23.184Z,15.55
2022-11-30T01:56:33.193Z,15.55
2022-11-30T01:56:43.192Z,15.54
2022-11-30T01:56:53.189Z,15.55
2022-11-30T01:57:03.195Z,15.55
2022-11-30T01:57:13.200Z,15.56
2022-11-30T01:57:23.192Z,15.54
2022-11-30T01:57:33.191Z,15.56
2022-11-30T01:57:43.194Z,15.55
2022-11-30T01:57:53.194Z,15.54
2022-11-30T01:58:03.196Z,15.54
2022-11-30T01:58:13.198Z,15.54
2022-11-30T01:58:23.194Z,15.54
2022-11-30T01:58:33.178Z,15.54
2022-11-30T01:58:43.228Z,15.54
2022-11-30T01:58:53.198Z,15.54
2022-11-30T01:59:03.198Z,15.53
2022-11-30T01:59:13.196Z,15.55
2022-11-30T01:59:23.182Z,15.54
2022-11-30T01:59:33.185Z,15.53
2022-11-30T01:59:43.203Z,15.52
2022-11-30T01:59:53.238Z,15.53
2022-11-30T02:00:03.206Z,15.53
2022-11-30T02:00:13.208Z,15.54
2022-11-30T02:00:23.207Z,15.54
2022-11-30T02:00:33.206Z,15.54
2022-11-30T02:00:43.208Z,15.53
2022-11-30T02:00:53.211Z,15.53
2022-11-30T02:01:03.264Z,15.53
2022-11-30T02:01:13.238Z,15.54
2022-11-30T02:01:23.267Z,15.54
2022-11-30T02:01:33.251Z,15.53
2022-11-30T02:01:43.240Z,15.52
2022-11-30T02:01:53.212Z,15.54
2022-11-30T02:02:03.198Z,15.53
2022-11-30T02:02:13.236Z,15.56
2022-11-30T02:02:23.242Z,15.55
2022-11-30T02:02:33.216Z,15.55
2022-11-30T02:02:43.246Z,15.55
2022-11-30T02:02:53.289Z,15.55
2022-11-30T02:03:03.222Z,15.56
2022-11-30T02:03:13.223Z,15.56
2022-11-30T02:03:23.224Z,15.55
2022-11-30T02:03:33.226Z,15.54
2022-11-30T02:03:43.205Z,15.55
2022-11-30T02:03:53.208Z,15.55
2022-11-30T02:04:03.209Z,15.55
2022-11-30T02:04:13.225Z,15.55
2022-11-30T02:04:23.228Z,15.56
2022-11-30T02:04:33.213Z,15.54
2022-11-30T02:04:43.235Z,15.55
2022-11-30T02:04:53.215Z,15.55
2022-11-30T02:05:03.232Z,15.55
2022-11-30T02:05:13.214Z,15.54
2022-11-30T02:05:23.212Z,15.55
2022-11-30T02:05:33.235Z,15.56
2022-11-30T02:05:43.235Z,15.56
2022-11-30T02:05:53.233Z,15.53
2022-11-30T02:06:03.231Z,15.56
2022-11-30T02:06:13.235Z,15.55
2022-11-30T02:06:23.216Z,15.55
2022-11-30T02:06:33.241Z,15.54
2022-11-30T02:06:43.236Z,15.55
2022-11-30T02:06:53.217Z,15.55
2022-11-30T02:07:03.237Z,15.55
2022-11-30T02:07:13.277Z,15.55
2022-11-30T02:07:23.362Z,15.54
2022-11-30T02:07:33.370Z,15.56
2022-11-30T02:07:43.318Z,15.55
2022-11-30T02:07:53.456Z,15.54
2022-11-30T02:08:03.406Z,15.55
2022-11-30T02:08:13.349Z,15.55
2022-11-30T02:08:23.400Z,15.55
2022-11-30T02:08:33.335Z,15.54
2022-11-30T02:08:43.302Z,15.56